sensor_id;sensor_type;location;lat;lon;timestamp;P1;durP1;ratioP1;P2;durP2;ratioP2
55663;SDS011;41540;57.880;12.164;2023-07-08T00:07:53;6.60;;;4.72;;
55663;SDS011;41540;57.880;12.164;2023-07-08T00:17:53;10.13;;;6.10;;
55663;SDS011;41540;57.880;12.164;2023-07-08T00:27:54;11.00;;;5.00;;
55663;SDS011;41540;57.880;12.164;2023-07-08T00:37:55;8.75;;;4.28;;
55663;SDS011;41540;57.880;12.164;2023-07-08T00:48:11;11.00;;;5.00;;
55663;SDS011;41540;57.880;12.164;2023-07-08T00:58:17;14.00;;;4.53;;
55663;SDS011;41540;57.880;12.164;2023-07-08T01:08:21;13.88;;;5.85;;
55663;SDS011;41540;57.880;12.164;2023-07-08T01:18:28;11.52;;;5.72;;
55663;SDS011;41540;57.880;12.164;2023-07-08T01:28:29;11.65;;;5.35;;
55663;SDS011;41540;57.880;12.164;2023-07-08T01:38:30;12.80;;;5.57;;
55663;SDS011;41540;57.880;12.164;2023-07-08T01:48:33;12.27;;;5.85;;
55663;SDS011;41540;57.880;12.164;2023-07-08T01:58:38;17.23;;;5.25;;
55663;SDS011;41540;57.880;12.164;2023-07-08T02:08:39;9.55;;;5.03;;
55663;SDS011;41540;57.880;12.164;2023-07-08T02:18:39;15.63;;;5.60;;
55663;SDS011;41540;57.880;12.164;2023-07-08T02:28:39;17.05;;;6.90;;
55663;SDS011;41540;57.880;12.164;2023-07-08T02:38:40;14.50;;;5.45;;
55663;SDS011;41540;57.880;12.164;2023-07-08T02:48:40;11.32;;;5.47;;
55663;SDS011;41540;57.880;12.164;2023-07-08T02:58:41;10.43;;;5.50;;
55663;SDS011;41540;57.880;12.164;2023-07-08T03:08:41;7.18;;;6.18;;
55663;SDS011;41540;57.880;12.164;2023-07-08T03:18:41;6.20;;;3.97;;
55663;SDS011;41540;57.880;12.164;2023-07-08T03:28:46;6.53;;;3.85;;
55663;SDS011;41540;57.880;12.164;2023-07-08T03:38:55;8.80;;;3.55;;
55663;SDS011;41540;57.880;12.164;2023-07-08T03:48:56;9.65;;;4.30;;
55663;SDS011;41540;57.880;12.164;2023-07-08T03:58:57;9.15;;;5.13;;
55663;SDS011;41540;57.880;12.164;2023-07-08T04:08:57;9.70;;;4.70;;
55663;SDS011;41540;57.880;12.164;2023-07-08T04:18:58;9.57;;;4.90;;
55663;SDS011;41540;57.880;12.164;2023-07-08T04:28:58;13.57;;;5.30;;
55663;SDS011;41540;57.880;12.164;2023-07-08T04:38:58;9.52;;;4.05;;
55663;SDS011;41540;57.880;12.164;2023-07-08T04:49:00;9.95;;;4.50;;
55663;SDS011;41540;57.880;12.164;2023-07-08T04:59:01;16.60;;;4.22;;
55663;SDS011;41540;57.880;12.164;2023-07-08T05:09:02;9.00;;;4.47;;
55663;SDS011;41540;57.880;12.164;2023-07-08T05:19:03;4.82;;;3.17;;
55663;SDS011;41540;57.880;12.164;2023-07-08T05:29:03;6.32;;;3.22;;
55663;SDS011;41540;57.880;12.164;2023-07-08T05:39:05;5.90;;;3.85;;
55663;SDS011;41540;57.880;12.164;2023-07-08T05:49:05;4.60;;;2.10;;
55663;SDS011;41540;57.880;12.164;2023-07-08T05:59:06;6.47;;;3.03;;
55663;SDS011;41540;57.880;12.164;2023-07-08T06:09:06;4.35;;;2.80;;
55663;SDS011;41540;57.880;12.164;2023-07-08T06:19:07;8.00;;;3.22;;
55663;SDS011;41540;57.880;12.164;2023-07-08T06:29:08;6.97;;;3.20;;
55663;SDS011;41540;57.880;12.164;2023-07-08T06:39:08;5.45;;;3.00;;
55663;SDS011;41540;57.880;12.164;2023-07-08T06:49:11;7.22;;;3.33;;
55663;SDS011;41540;57.880;12.164;2023-07-08T06:59:12;5.47;;;2.80;;
55663;SDS011;41540;57.880;12.164;2023-07-08T07:29:16;11.00;;;3.95;;
55663;SDS011;41540;57.880;12.164;2023-07-08T07:39:17;5.93;;;2.47;;
55663;SDS011;41540;57.880;12.164;2023-07-08T07:49:17;5.53;;;3.10;;
55663;SDS011;41540;57.880;12.164;2023-07-08T07:59:18;4.70;;;3.00;;
55663;SDS011;41540;57.880;12.164;2023-07-08T08:09:19;8.15;;;2.78;;
55663;SDS011;41540;57.880;12.164;2023-07-08T08:19:19;5.07;;;2.70;;
55663;SDS011;41540;57.880;12.164;2023-07-08T08:29:20;4.03;;;3.00;;
55663;SDS011;41540;57.880;12.164;2023-07-08T08:39:20;3.35;;;2.70;;
55663;SDS011;41540;57.880;12.164;2023-07-08T08:59:29;4.45;;;2.22;;
55663;SDS011;41540;57.880;12.164;2023-07-08T09:10:03;3.85;;;2.67;;
55663;SDS011;41540;57.880;12.164;2023-07-08T09:30:23;5.50;;;3.00;;
55663;SDS011;41540;57.880;12.164;2023-07-08T09:40:31;2.40;;;2.20;;
55663;SDS011;41540;57.880;12.164;2023-07-08T09:50:32;6.25;;;2.97;;
55663;SDS011;41540;57.880;12.164;2023-07-08T10:00:39;4.95;;;2.83;;
55663;SDS011;41540;57.880;12.164;2023-07-08T10:10:39;4.57;;;2.70;;
55663;SDS011;41540;57.880;12.164;2023-07-08T10:21:14;2.55;;;2.10;;
55663;SDS011;41540;57.880;12.164;2023-07-08T10:31:27;5.68;;;2.63;;
55663;SDS011;41540;57.880;12.164;2023-07-08T10:41:33;3.83;;;2.00;;
55663;SDS011;41540;57.880;12.164;2023-07-08T10:52:22;2.40;;;2.17;;
55663;SDS011;41540;57.880;12.164;2023-07-08T11:12:09;3.22;;;2.55;;
55663;SDS011;41540;57.880;12.164;2023-07-08T11:22:14;3.05;;;2.00;;
55663;SDS011;41540;57.880;12.164;2023-07-08T11:32:16;3.63;;;2.15;;
55663;SDS011;41540;57.880;12.164;2023-07-08T11:52:18;2.75;;;2.10;;
55663;SDS011;41540;57.880;12.164;2023-07-08T12:02:19;3.95;;;2.38;;
55663;SDS011;41540;57.880;12.164;2023-07-08T12:12:24;4.30;;;2.30;;
55663;SDS011;41540;57.880;12.164;2023-07-08T12:22:24;3.55;;;2.00;;
55663;SDS011;41540;57.880;12.164;2023-07-08T12:32:24;2.85;;;2.25;;
55663;SDS011;41540;57.880;12.164;2023-07-08T12:42:27;3.92;;;2.20;;
55663;SDS011;41540;57.880;12.164;2023-07-08T12:52:27;3.33;;;2.53;;
55663;SDS011;41540;57.880;12.164;2023-07-08T13:02:27;3.72;;;2.30;;
55663;SDS011;41540;57.880;12.164;2023-07-08T13:12:30;4.18;;;2.63;;
55663;SDS011;41540;57.880;12.164;2023-07-08T13:22:31;5.07;;;2.28;;
55663;SDS011;41540;57.880;12.164;2023-07-08T13:32:31;3.72;;;2.38;;
55663;SDS011;41540;57.880;12.164;2023-07-08T13:42:31;2.72;;;1.95;;
55663;SDS011;41540;57.880;12.164;2023-07-08T13:52:32;4.22;;;2.47;;
55663;SDS011;41540;57.880;12.164;2023-07-08T14:02:32;3.67;;;2.75;;
55663;SDS011;41540;57.880;12.164;2023-07-08T14:12:33;3.85;;;2.72;;
55663;SDS011;41540;57.880;12.164;2023-07-08T14:22:34;3.05;;;2.30;;
55663;SDS011;41540;57.880;12.164;2023-07-08T14:32:34;6.90;;;2.80;;
55663;SDS011;41540;57.880;12.164;2023-07-08T14:42:34;3.38;;;2.35;;
55663;SDS011;41540;57.880;12.164;2023-07-08T14:52:34;2.67;;;2.03;;
55663;SDS011;41540;57.880;12.164;2023-07-08T15:02:35;4.97;;;3.08;;
55663;SDS011;41540;57.880;12.164;2023-07-08T15:12:37;3.55;;;2.50;;
55663;SDS011;41540;57.880;12.164;2023-07-08T15:22:37;6.82;;;2.70;;
55663;SDS011;41540;57.880;12.164;2023-07-08T15:32:37;4.22;;;2.47;;
55663;SDS011;41540;57.880;12.164;2023-07-08T15:42:38;4.47;;;2.58;;
55663;SDS011;41540;57.880;12.164;2023-07-08T15:52:39;4.60;;;2.33;;
55663;SDS011;41540;57.880;12.164;2023-07-08T16:02:39;3.17;;;1.77;;
55663;SDS011;41540;57.880;12.164;2023-07-08T16:12:40;2.97;;;2.58;;
55663;SDS011;41540;57.880;12.164;2023-07-08T16:22:40;4.90;;;2.63;;
55663;SDS011;41540;57.880;12.164;2023-07-08T16:32:41;2.85;;;2.30;;
55663;SDS011;41540;57.880;12.164;2023-07-08T16:42:42;3.78;;;2.60;;
55663;SDS011;41540;57.880;12.164;2023-07-08T16:52:43;2.67;;;2.42;;
55663;SDS011;41540;57.880;12.164;2023-07-08T17:02:44;5.13;;;2.47;;
55663;SDS011;41540;57.880;12.164;2023-07-08T17:12:44;2.53;;;2.10;;
55663;SDS011;41540;57.880;12.164;2023-07-08T17:22:44;4.10;;;2.55;;
55663;SDS011;41540;57.880;12.164;2023-07-08T17:32:46;5.13;;;2.35;;
55663;SDS011;41540;57.880;12.164;2023-07-08T17:42:49;4.05;;;3.38;;
55663;SDS011;41540;57.880;12.164;2023-07-08T17:52:50;4.97;;;3.23;;
55663;SDS011;41540;57.880;12.164;2023-07-08T18:02:50;7.20;;;6.10;;
55663;SDS011;41540;57.880;12.164;2023-07-08T18:12:51;4.97;;;2.92;;
55663;SDS011;41540;57.880;12.164;2023-07-08T18:22:54;10.17;;;3.27;;
55663;SDS011;41540;57.880;12.164;2023-07-08T18:32:54;2.90;;;2.15;;
55663;SDS011;41540;57.880;12.164;2023-07-08T18:53:26;7.65;;;4.20;;
55663;SDS011;41540;57.880;12.164;2023-07-08T19:03:27;3.20;;;2.38;;
55663;SDS011;41540;57.880;12.164;2023-07-08T19:23:38;3.40;;;2.50;;
55663;SDS011;41540;57.880;12.164;2023-07-08T19:33:41;2.75;;;2.17;;
55663;SDS011;41540;57.880;12.164;2023-07-08T19:43:42;5.35;;;2.45;;
55663;SDS011;41540;57.880;12.164;2023-07-08T19:53:42;10.40;;;3.17;;
55663;SDS011;41540;57.880;12.164;2023-07-08T20:03:42;3.65;;;2.67;;
55663;SDS011;41540;57.880;12.164;2023-07-08T20:13:43;3.47;;;2.70;;
55663;SDS011;41540;57.880;12.164;2023-07-08T20:23:43;3.10;;;2.77;;
55663;SDS011;41540;57.880;12.164;2023-07-08T20:33:43;6.95;;;3.45;;
55663;SDS011;41540;57.880;12.164;2023-07-08T20:43:44;3.55;;;3.25;;
55663;SDS011;41540;57.880;12.164;2023-07-08T20:53:44;6.35;;;3.15;;
55663;SDS011;41540;57.880;12.164;2023-07-08T21:03:45;3.28;;;2.97;;
55663;SDS011;41540;57.880;12.164;2023-07-08T21:13:45;7.20;;;4.05;;
55663;SDS011;41540;57.880;12.164;2023-07-08T21:23:45;4.85;;;2.85;;
55663;SDS011;41540;57.880;12.164;2023-07-08T21:33:46;4.95;;;3.50;;
55663;SDS011;41540;57.880;12.164;2023-07-08T21:43:47;3.95;;;3.65;;
55663;SDS011;41540;57.880;12.164;2023-07-08T21:53:47;4.55;;;4.15;;
55663;SDS011;41540;57.880;12.164;2023-07-08T22:03:48;3.97;;;3.58;;
55663;SDS011;41540;57.880;12.164;2023-07-08T22:13:49;7.63;;;4.55;;
55663;SDS011;41540;57.880;12.164;2023-07-08T22:23:49;7.30;;;4.38;;
55663;SDS011;41540;57.880;12.164;2023-07-08T22:33:49;4.20;;;3.80;;
55663;SDS011;41540;57.880;12.164;2023-07-08T22:43:50;4.50;;;4.10;;
55663;SDS011;41540;57.880;12.164;2023-07-08T22:53:50;6.45;;;3.97;;
55663;SDS011;41540;57.880;12.164;2023-07-08T23:03:51;7.25;;;5.10;;
55663;SDS011;41540;57.880;12.164;2023-07-08T23:13:51;4.75;;;4.22;;
55663;SDS011;41540;57.880;12.164;2023-07-08T23:23:52;7.20;;;4.60;;
55663;SDS011;41540;57.880;12.164;2023-07-08T23:33:52;10.65;;;5.07;;
55663;SDS011;41540;57.880;12.164;2023-07-08T23:43:53;6.07;;;4.68;;
55663;SDS011;41540;57.880;12.164;2023-07-08T23:53:53;5.43;;;4.93;;
